createdAt,value
2022-07-25T00:02:21.123Z,31.60
2022-07-25T00:04:49.358Z,31.60
2022-07-25T00:07:17.371Z,31.50
2022-07-25T00:09:46.620Z,31.50
2022-07-25T00:12:14.756Z,31.50
2022-07-25T00:14:42.705Z,31.40
2022-07-25T00:17:10.610Z,31.40
2022-07-25T00:19:38.922Z,31.40
2022-07-25T00:22:06.875Z,31.30
2022-07-25T00:24:34.954Z,31.20
2022-07-25T00:27:04.592Z,31.00
2022-07-25T00:29:32.490Z,31.00
2022-07-25T00:32:00.445Z,31.00
2022-07-25T00:34:28.360Z,30.90
2022-07-25T00:36:56.303Z,30.90
2022-07-25T00:39:24.310Z,31.00
2022-07-25T00:41:52.340Z,30.90
2022-07-25T00:44:25.195Z,30.90
2022-07-25T00:46:53.579Z,30.90
2022-07-25T00:49:21.621Z,30.90
2022-07-25T00:51:49.893Z,30.90
2022-07-25T00:54:17.994Z,30.80
2022-07-25T00:56:46.193Z,30.80
2022-07-25T00:59:14.134Z,30.80
2022-07-25T01:01:45.531Z,30.80
2022-07-25T01:04:13.500Z,30.80
2022-07-25T01:06:41.427Z,30.70
2022-07-25T01:09:09.338Z,30.70
2022-07-25T01:11:37.576Z,30.70
2022-07-25T01:14:06.126Z,30.70
2022-07-25T01:16:34.449Z,30.70
2022-07-25T01:19:03.780Z,30.60
2022-07-25T01:21:33.063Z,30.60
2022-07-25T01:24:00.961Z,30.50
2022-07-25T01:26:28.870Z,30.50
2022-07-25T01:28:57.145Z,30.40
2022-07-25T01:31:25.103Z,30.30
2022-07-25T01:33:53.030Z,30.30
2022-07-25T01:36:20.947Z,30.30
2022-07-25T01:38:50.205Z,30.30
2022-07-25T01:41:22.792Z,30.30
2022-07-25T01:43:50.823Z,30.20
2022-07-25T01:46:18.872Z,30.20
2022-07-25T01:48:46.957Z,30.20
2022-07-25T01:51:14.985Z,30.20
2022-07-25T01:53:47.816Z,30.20
2022-07-25T01:56:17.989Z,30.20
2022-07-25T01:58:49.960Z,30.10
2022-07-25T02:01:19.386Z,30.10
2022-07-25T02:03:49.874Z,30.10
2022-07-25T02:06:19.155Z,30.00
2022-07-25T02:08:47.185Z,30.00
2022-07-25T02:11:17.204Z,30.00
2022-07-25T02:13:45.414Z,30.00
2022-07-25T02:16:13.664Z,30.00
2022-07-25T02:18:41.593Z,30.00
2022-07-25T02:21:14.507Z,29.90
2022-07-25T02:23:43.193Z,29.90
2022-07-25T02:26:11.515Z,29.90
2022-07-25T02:28:41.151Z,29.90
2022-07-25T02:31:09.383Z,29.80
2022-07-25T02:33:37.604Z,29.80
2022-07-25T02:36:05.638Z,29.80
2022-07-25T02:38:33.571Z,29.80
2022-07-25T02:41:01.460Z,29.80
2022-07-25T02:43:29.385Z,29.70
2022-07-25T02:45:58.692Z,29.70
2022-07-25T02:48:26.827Z,29.70
2022-07-25T02:50:54.852Z,29.70
2022-07-25T02:53:40.339Z,29.60
2022-07-25T02:56:10.656Z,29.60
2022-07-25T02:58:38.711Z,29.60
2022-07-25T03:01:08.757Z,29.60
2022-07-25T03:03:36.833Z,29.50
2022-07-25T03:06:05.103Z,29.50
2022-07-25T03:08:33.117Z,29.50
2022-07-25T03:11:01.003Z,29.50
2022-07-25T03:13:28.949Z,29.50
2022-07-25T03:15:57.153Z,29.50
2022-07-25T03:18:26.450Z,29.40
2022-07-25T03:20:54.356Z,29.40
2022-07-25T03:23:22.284Z,29.40
2022-07-25T03:25:50.196Z,29.30
2022-07-25T03:28:18.100Z,29.30
2022-07-25T09:18:13.268Z,34.60
2022-07-25T09:20:44.800Z,35.50
2022-07-25T09:23:14.284Z,35.40
2022-07-25T09:28:11.254Z,35.20
2022-07-25T09:30:39.397Z,35.60
2022-07-25T09:33:07.334Z,36.00
2022-07-25T09:38:14.020Z,35.80
2022-07-25T09:40:42.308Z,35.40
2022-07-25T09:43:10.256Z,35.90
2022-07-25T09:45:38.177Z,35.90
2022-07-25T09:48:06.389Z,35.60
2022-07-25T09:50:34.383Z,35.00
2022-07-25T09:53:03.111Z,35.10
2022-07-25T09:55:33.483Z,34.70
2022-07-25T09:58:01.511Z,34.60
2022-07-25T10:00:30.330Z,34.50
2022-07-25T10:03:06.876Z,33.60
2022-07-25T10:05:43.806Z,33.90
2022-07-25T10:08:11.874Z,34.80
2022-07-25T10:10:42.097Z,35.10
2022-07-25T10:13:11.825Z,35.50
2022-07-25T10:15:43.808Z,35.60
2022-07-25T10:18:11.845Z,36.30
2022-07-25T10:20:39.823Z,36.80
2022-07-25T10:23:17.754Z,37.70
2022-07-25T10:25:49.103Z,37.30
2022-07-25T10:28:19.448Z,38.00
2022-07-25T10:30:47.752Z,38.10
2022-07-25T10:33:16.479Z,39.00
2022-07-25T10:35:44.979Z,39.50
2022-07-25T10:40:42.499Z,40.80
2022-07-25T10:43:13.057Z,40.00
2022-07-25T10:45:44.956Z,38.90
2022-07-25T10:48:13.880Z,39.50
2022-07-25T10:53:31.991Z,38.90
2022-07-25T10:56:05.962Z,39.20
2022-07-25T10:58:51.934Z,39.30
2022-07-25T11:01:26.051Z,39.20
2022-07-25T11:03:54.668Z,39.10
2022-07-25T11:06:32.711Z,39.20
2022-07-25T11:09:01.476Z,39.80
2022-07-25T11:11:36.604Z,40.10
2022-07-25T11:14:04.611Z,40.10
2022-07-25T11:16:34.237Z,40.00
2022-07-25T11:19:02.213Z,39.80
2022-07-25T11:21:30.172Z,39.70
2022-07-25T11:23:58.054Z,39.40
2022-07-25T11:26:26.162Z,39.00
2022-07-25T11:28:54.062Z,38.70
2022-07-25T11:31:23.695Z,38.60
2022-07-25T11:33:53.036Z,38.50
2022-07-25T11:36:21.006Z,38.60
2022-07-25T11:38:49.293Z,38.60
2022-07-25T11:41:17.239Z,38.60
2022-07-25T11:43:49.522Z,38.50
2022-07-25T11:46:18.454Z,38.50
2022-07-25T11:48:47.736Z,38.30
2022-07-25T11:51:18.823Z,38.30
2022-07-25T11:53:48.245Z,38.40
2022-07-25T11:56:40.780Z,38.40
2022-07-25T11:59:05.451Z,38.40
2022-07-25T12:01:37.307Z,38.30
2022-07-25T12:04:12.573Z,38.70
2022-07-25T12:06:41.906Z,40.10
2022-07-25T12:09:18.334Z,41.40
2022-07-25T12:11:47.208Z,42.20
2022-07-25T12:14:15.291Z,43.20
2022-07-25T12:16:43.322Z,44.00
2022-07-25T12:19:18.695Z,44.70
2022-07-25T12:21:48.223Z,44.90
2022-07-25T12:24:16.217Z,45.40
2022-07-25T12:26:44.263Z,46.20
2022-07-25T12:29:12.164Z,46.50
2022-07-25T12:31:40.100Z,46.30
2022-07-25T12:34:08.036Z,46.20
2022-07-25T12:36:41.189Z,46.10
2022-07-25T12:39:10.715Z,46.20
2022-07-25T12:41:40.415Z,46.40
2022-07-25T12:44:08.340Z,46.80
2022-07-25T12:46:38.347Z,47.20
2022-07-25T12:49:06.621Z,47.40
2022-07-25T12:51:34.738Z,47.40
2022-07-25T12:54:02.645Z,47.60
2022-07-25T12:56:32.032Z,48.00
2022-07-25T12:58:59.927Z,47.80
2022-07-25T13:01:27.909Z,47.70
2022-07-25T13:03:55.901Z,47.80
2022-07-25T13:06:23.848Z,47.00
2022-07-25T13:08:51.796Z,46.10
2022-07-25T13:11:19.796Z,45.70
2022-07-25T13:13:49.113Z,45.50
2022-07-25T13:16:17.091Z,45.20
2022-07-25T13:18:45.253Z,44.90
2022-07-25T13:21:13.155Z,44.80
2022-07-25T13:23:41.337Z,45.10
2022-07-25T13:26:09.669Z,45.50
2022-07-25T13:28:37.619Z,45.70
2022-07-25T13:31:07.927Z,45.60
2022-07-25T13:33:35.851Z,45.30
2022-07-25T13:36:03.758Z,45.20
2022-07-25T13:38:31.945Z,45.00
2022-07-25T13:40:59.859Z,45.00
2022-07-25T13:43:27.791Z,45.00
2022-07-25T13:45:55.745Z,45.40
2022-07-25T13:48:29.902Z,45.90
2022-07-25T13:51:00.160Z,46.40
2022-07-25T13:53:30.541Z,46.70
2022-07-25T13:55:59.177Z,46.80
2022-07-25T13:58:27.507Z,46.90
2022-07-25T14:00:55.499Z,46.90
2022-07-25T14:03:23.499Z,46.90
2022-07-25T14:05:52.790Z,46.70
2022-07-25T14:08:20.850Z,46.80
2022-07-25T14:10:48.729Z,46.80
2022-07-25T14:13:16.642Z,46.20
2022-07-25T14:15:44.969Z,45.90
2022-07-25T14:18:12.925Z,45.50
2022-07-25T14:20:40.807Z,45.30
2022-07-25T14:23:10.082Z,45.20
2022-07-25T14:25:38.991Z,44.90
2022-07-25T14:28:06.890Z,44.80
2022-07-25T14:30:34.787Z,44.60
2022-07-25T14:33:02.675Z,44.50
2022-07-25T14:35:32.808Z,44.40
2022-07-25T14:38:00.866Z,44.30
2022-07-25T14:40:30.107Z,44.20
2022-07-25T14:42:58.030Z,44.00
2022-07-25T14:45:25.904Z,43.80
2022-07-25T14:47:54.001Z,44.10
2022-07-25T14:50:21.999Z,44.90
2022-07-25T14:52:49.884Z,45.40
2022-07-25T14:55:18.768Z,45.90
2022-07-25T14:57:48.043Z,46.30
2022-07-25T15:00:16.294Z,46.50
2022-07-25T15:02:44.326Z,46.60
2022-07-25T15:05:12.234Z,46.10
2022-07-25T15:07:40.184Z,45.10
2022-07-25T15:10:08.447Z,44.50
2022-07-25T15:12:36.440Z,43.80
2022-07-25T15:15:06.468Z,43.10
2022-07-25T15:17:34.434Z,42.80
2022-07-25T15:20:02.302Z,42.30
2022-07-25T15:22:30.470Z,41.60
2022-07-25T15:25:29.804Z,41.30
2022-07-25T15:27:46.324Z,41.20
2022-07-25T15:30:15.593Z,41.20
2022-07-25T15:32:45.272Z,41.10
2022-07-25T15:35:13.141Z,41.10
2022-07-25T15:37:41.007Z,40.90
2022-07-25T15:40:09.399Z,40.90
2022-07-25T15:42:39.040Z,40.90
2022-07-25T15:45:32.151Z,41.00
2022-07-25T15:47:57.396Z,41.30
2022-07-25T15:50:25.377Z,41.40
2022-07-25T15:52:53.293Z,41.40
2022-07-25T15:55:21.239Z,41.40
2022-07-25T15:57:49.122Z,41.40
2022-07-25T16:00:17.164Z,41.30
2022-07-25T16:02:46.517Z,41.30
2022-07-25T16:05:15.814Z,41.20
2022-07-25T16:07:44.096Z,41.10
2022-07-25T16:10:12.184Z,41.00
2022-07-25T16:12:40.242Z,40.90
2022-07-25T16:15:08.816Z,40.90
2022-07-25T16:17:37.340Z,41.00
2022-07-25T16:20:06.697Z,40.90
2022-07-25T16:22:36.056Z,40.80
2022-07-25T16:25:04.239Z,40.70
2022-07-25T16:27:32.188Z,40.30
2022-07-25T16:30:00.222Z,39.90
2022-07-25T16:32:28.231Z,39.50
2022-07-25T16:34:56.280Z,39.20
2022-07-25T16:37:24.273Z,39.00
2022-07-25T16:39:53.844Z,38.70
2022-07-25T16:42:21.843Z,38.50
2022-07-25T16:44:49.889Z,38.10
2022-07-25T16:47:17.883Z,37.90
2022-07-25T16:49:45.903Z,37.70
2022-07-25T16:52:14.292Z,37.50
2022-07-25T16:54:42.577Z,37.30
2022-07-25T16:57:11.963Z,37.30
2022-07-25T16:59:39.998Z,37.20
2022-07-25T17:02:08.097Z,36.90
2022-07-25T17:04:36.410Z,36.80
2022-07-25T17:07:04.631Z,36.70
2022-07-25T17:09:32.619Z,36.40
2022-07-25T17:12:00.608Z,36.20
2022-07-25T17:14:30.488Z,36.00
2022-07-25T17:16:58.797Z,36.00
2022-07-25T17:19:26.809Z,36.00
2022-07-25T17:21:54.773Z,36.00
2022-07-25T17:24:22.825Z,36.00
2022-07-25T17:26:50.827Z,35.70
2022-07-25T17:29:18.837Z,35.60
2022-07-25T17:31:48.279Z,35.30
2022-07-25T17:34:16.357Z,35.30
2022-07-25T17:36:44.427Z,34.90
2022-07-25T17:39:12.833Z,34.80
2022-07-25T17:41:40.954Z,34.80
2022-07-25T17:44:12.172Z,34.90
2022-07-25T17:46:40.604Z,34.80
2022-07-25T17:49:10.505Z,34.70
2022-07-25T17:51:38.625Z,34.70
2022-07-25T17:54:06.990Z,34.60
2022-07-25T17:56:35.197Z,34.50
2022-07-25T17:59:03.477Z,34.40
2022-07-25T18:01:32.066Z,34.30
2022-07-25T18:04:00.120Z,34.10
2022-07-25T18:06:30.227Z,34.00
2022-07-25T18:08:58.389Z,33.90
2022-07-25T18:11:27.876Z,33.80
2022-07-25T18:13:56.119Z,33.50
2022-07-25T18:16:24.220Z,33.40
2022-07-25T18:18:52.133Z,33.40
2022-07-25T18:21:20.040Z,33.40
2022-07-25T18:23:49.300Z,33.50
2022-07-25T18:26:17.973Z,33.50
2022-07-25T18:28:45.958Z,33.10
2022-07-25T18:31:19.963Z,33.10
2022-07-25T18:33:47.895Z,33.00
2022-07-25T18:36:15.828Z,32.90
2022-07-25T18:38:43.725Z,32.70
2022-07-25T18:41:28.744Z,32.60
2022-07-25T18:43:57.386Z,32.60
2022-07-25T18:46:25.599Z,32.50
2022-07-25T18:48:54.095Z,32.60
2022-07-25T18:51:22.053Z,32.80
2022-07-25T18:53:49.942Z,32.90
2022-07-25T18:56:19.193Z,32.90
2022-07-25T18:58:47.091Z,33.00
2022-07-25T19:01:15.073Z,33.10
2022-07-25T19:03:43.035Z,33.20
2022-07-25T19:06:11.229Z,33.20
2022-07-25T19:08:39.121Z,33.20
2022-07-25T19:11:07.114Z,33.10
2022-07-25T19:13:49.537Z,33.10
2022-07-25T19:16:17.794Z,33.10
2022-07-25T19:18:45.852Z,33.10
2022-07-25T19:21:13.853Z,33.00
2022-07-25T19:23:44.672Z,32.80
2022-07-25T19:26:16.185Z,32.80
2022-07-25T19:28:45.462Z,32.80
2022-07-25T19:31:15.619Z,32.80
2022-07-25T19:33:45.612Z,32.90
2022-07-25T19:36:13.642Z,32.90
2022-07-25T19:38:41.511Z,32.90
2022-07-25T19:41:09.642Z,32.80
2022-07-25T19:46:09.346Z,32.40
2022-07-25T21:07:53.142Z,31.20
2022-07-25T21:10:21.249Z,30.70
2022-07-25T22:30:16.505Z,30.40
2022-07-25T22:32:47.004Z,31.10
2022-07-25T22:37:43.262Z,30.00
2022-07-25T22:40:11.698Z,30.40
2022-07-25T22:47:37.346Z,29.90
2022-07-25T22:50:05.960Z,30.50
2022-07-25T22:52:35.015Z,29.70
2022-07-25T22:55:03.015Z,29.70
2022-07-25T22:57:36.743Z,29.90
2022-07-25T23:00:07.047Z,30.50
